This is the latest recevied weather packets stored in our database for station/object K1NOT-WX. If no packets are shown the sender has not sent any weather packets the latest 10 day(s).
| Time | Temp. | Humidity | Pressure | Rain* | Wind** | Luminosity | Snow |
|---|---|---|---|---|---|---|---|
| 1777785133 | 17.22° C | 56% | 1005.8 hPa | 0 mm | - | - | - |
| 1777784233 | 17.78° C | 53% | 1005.4 hPa | 0 mm | - | - | - |
| 1777783333 | 18.33° C | 51% | 1005.8 hPa | 0 mm | - | - | - |
| 1777782433 | 18.89° C | 49% | 1005.4 hPa | 0 mm | - | - | - |
| 1777781533 | 18.89° C | 50% | 1005.4 hPa | 0 mm | - | - | - |
| 1777780633 | 18.89° C | 50% | 1004.7 hPa | 0 mm | - | - | - |
| 1777779733 | 18.89° C | 51% | 1004.7 hPa | 0 mm | - | - | - |
| 1777778833 | 18.89° C | 51% | 1004.4 hPa | 0 mm | - | - | - |
| 1777777933 | 19.44° C | 52% | 1004.4 hPa | 0 mm | - | - | - |
| 1777777033 | 19.44° C | 52% | 1004.4 hPa | 0 mm | - | - | - |
| 1777776133 | 20° C | 51% | 1004.1 hPa | 0 mm | - | - | - |
| 1777775233 | 20.56° C | 51% | 1004.4 hPa | 0 mm | - | - | - |
| 1777774333 | 20.56° C | 52% | 1004.7 hPa | 0 mm | - | - | - |
| 1777773433 | 20.56° C | 52% | 1004.4 hPa | 0 mm | - | - | - |
| 1777772533 | 20.56° C | 53% | 1004.4 hPa | 0 mm | - | - | - |
| 1777771633 | 20.56° C | 53% | 1004.4 hPa | 0 mm | - | - | - |
| 1777770733 | 21.11° C | 52% | 1004.7 hPa | 0 mm | - | - | - |
| 1777769833 | 21.11° C | 52% | 1004.4 hPa | 0 mm | - | - | - |
| 1777768933 | 21.67° C | 52% | 1005.1 hPa | 0 mm | - | - | - |
| 1777768033 | 21.11° C | 54% | 1004.7 hPa | 0 mm | - | - | - |
| 1777767132 | 21.67° C | 53% | 1004.7 hPa | 0 mm | - | - | - |
| 1777766233 | 21.11° C | 53% | 1005.1 hPa | 0 mm | - | - | - |
| 1777765332 | 21.11° C | 53% | 1005.1 hPa | 0 mm | - | - | - |
| 1777764432 | 21.11° C | 54% | 1005.4 hPa | 0 mm | - | - | - |
| 1777763532 | 21.11° C | 55% | 1005.4 hPa | 0 mm | - | - | - |
* Rain latest hour (hover to see other rain measurements)
** Current wind speed in m/s (hover to see current wind gust speed)